Orange City, IA

8:23 AM CDT on June 29, 2017 (GMT -0500)
Orange City Municipal

Weather History for KORC - March, 2013

Change the Weather History Date:

Sunday, March 17, 2013

  Actual Average Record
Temperature  
Mean Temperature 25 °F -  
Max Temperature 35 °F 41 °F 80 °F (2012)
Min Temperature 15 °F 25 °F 10 °F (1949)
Degree Days  
Heating Degree Days 40    
Moisture  
Dew Point 18 °F    
Average Humidity 74    
Maximum Humidity 87    
Minimum Humidity 64    
Precipitation  
Precipitation 0.00 in - - ()
Sea Level Pressure  
Sea Level Pressure 29.96 in    
Wind  
Wind Speed 10 mph (ESE)    
Max Wind Speed 20 mph    
Max Gust Speed 26 mph    
Visibility 10 miles    
Events Snow    
Averages and records for this station are not official NWS values.
T = Trace of Precipitation, MM = Missing Value Source: NWS Daily Summary

Daily Weather History Graph

Daily Weather History Graph

Search for Another Location

Airport or City:

Trip Planner

Search our weather history database for the weather conditions in past years. The results will help you decide how hot, cold, wet, or windy it might be!

Date:

Astronomy

Mar. 17, 2013 Rise Set
Actual Time 7:32 AM CDT 7:33 PM CDT
Civil Twilight 7:04 AM CDT 8:01 PM CDT
Nautical Twilight 6:31 AM CDT 8:34 PM CDT
Astronomical Twilight 5:57 AM CDT 9:08 PM CDT
Moon 10:37 AM CDT (3/17) 12:50 AM CDT (3/17)
Length of Visible Light 12h 57m
Length of Day
12h 01m
Waxing Crescent, 31% of the Moon is Illuminated
Mar 17
Waxing Crescent
Mar 19
First Quarter
Mar 27
Full
Apr 2
Last Quarter
Apr 10
New

Hourly Weather History & Observations

Time (CDT) Temp. Windchill Dew Point Humidity Pressure Visibility Wind Dir Wind Speed Gust Speed Precip Events Conditions
12:15 AM 21.2 °F 13.6 °F 14.0 °F 74% 30.20 in 10.0 mi NE 5.8 mph - N/A   Scattered Clouds
12:35 AM 21.2 °F 13.6 °F 12.2 °F 68% 30.19 in 10.0 mi ENE 5.8 mph - N/A   Clear
12:55 AM 19.4 °F 8.6 °F 12.2 °F 74% 30.18 in 10.0 mi NE 9.2 mph - N/A   Scattered Clouds
1:15 AM 19.4 °F 9.5 °F 12.2 °F 74% 30.17 in 10.0 mi ENE 8.1 mph - N/A   Clear
1:35 AM 19.4 °F 10.4 °F 12.2 °F 74% 30.17 in 10.0 mi ENE 6.9 mph - N/A   Clear
1:55 AM 19.4 °F 7.9 °F 14.0 °F 80% 30.16 in 10.0 mi ENE 10.4 mph - N/A   Clear
2:15 AM 19.4 °F 10.4 °F 12.2 °F 74% 30.14 in 10.0 mi East 6.9 mph - N/A   Clear
2:35 AM 19.4 °F 8.6 °F 12.2 °F 74% 30.14 in 10.0 mi ENE 9.2 mph - N/A   Clear
2:55 AM 19.4 °F 10.4 °F 12.2 °F 74% 30.14 in 10.0 mi ENE 6.9 mph - N/A   Clear
3:15 AM 17.6 °F 8.2 °F 12.2 °F 79% 30.13 in 10.0 mi ENE 6.9 mph - N/A   Clear
3:35 AM 17.6 °F 5.7 °F 10.4 °F 73% 30.13 in 10.0 mi ENE 10.4 mph - N/A   Clear
3:55 AM 17.6 °F 6.4 °F 10.4 °F 73% 30.12 in 10.0 mi ENE 9.2 mph - N/A   Clear
4:15 AM 17.6 °F 5.7 °F 10.4 °F 73% 30.10 in 10.0 mi East 10.4 mph 17.3 mph N/A   Clear
4:35 AM 17.6 °F 6.4 °F 10.4 °F 73% 30.10 in 10.0 mi East 9.2 mph - N/A   Clear
4:55 AM 17.6 °F 5.7 °F 10.4 °F 73% 30.09 in 10.0 mi East 10.4 mph - N/A   Clear
5:35 AM 17.6 °F 5.0 °F 12.2 °F 79% 30.08 in 10.0 mi East 11.5 mph 16.1 mph N/A   Overcast
5:55 AM 17.6 °F 6.4 °F 12.2 °F 79% 30.08 in 10.0 mi ENE 9.2 mph - N/A   Overcast
6:15 AM 17.6 °F 4.3 °F 10.4 °F 73% 30.09 in 10.0 mi East 12.7 mph 17.3 mph N/A   Overcast
6:35 AM 17.6 °F 4.3 °F 10.4 °F 73% 30.08 in 10.0 mi East 12.7 mph 17.3 mph N/A   Overcast
6:55 AM 17.6 °F 5.7 °F 12.2 °F 79% 30.09 in 10.0 mi East 10.4 mph - N/A   Overcast
7:15 AM 17.6 °F 4.3 °F 12.2 °F 79% 30.08 in 10.0 mi East 12.7 mph 17.3 mph N/A   Overcast
7:35 AM 17.6 °F 3.7 °F 12.2 °F 79% 30.08 in 10.0 mi East 13.8 mph - N/A   Overcast
7:55 AM 15.8 °F 0.9 °F 10.4 °F 79% 30.07 in 10.0 mi East 15.0 mph 20.7 mph N/A   Overcast
8:15 AM 15.8 °F 1.4 °F 10.4 °F 79% 30.08 in 10.0 mi East 13.8 mph 19.6 mph N/A   Overcast
8:35 AM 17.6 °F 3.2 °F 10.4 °F 73% 30.07 in 10.0 mi ESE 15.0 mph 20.7 mph N/A   Overcast
8:55 AM 17.6 °F 4.3 °F 10.4 °F 73% 30.08 in 10.0 mi East 12.7 mph 19.6 mph N/A   Overcast
9:15 AM 17.6 °F 3.7 °F 10.4 °F 73% 30.08 in 10.0 mi ESE 13.8 mph 18.4 mph N/A   Overcast
9:35 AM 17.6 °F 4.3 °F 10.4 °F 73% 30.07 in 10.0 mi ESE 12.7 mph 17.3 mph N/A   Overcast
9:55 AM 19.4 °F 6.6 °F 10.4 °F 68% 30.07 in 10.0 mi ESE 12.7 mph 17.3 mph N/A   Overcast
10:15 AM 19.4 °F 8.6 °F 10.4 °F 68% 30.08 in 10.0 mi SE 9.2 mph - N/A   Overcast
10:35 AM 19.4 °F 8.6 °F 12.2 °F 74% 30.07 in 10.0 mi SE 9.2 mph - N/A   Overcast
10:55 AM 19.4 °F 8.6 °F 12.2 °F 74% 30.05 in 10.0 mi SE 9.2 mph 19.6 mph N/A   Mostly Cloudy
11:15 AM 21.2 °F 10.1 °F 14.0 °F 74% 30.05 in 10.0 mi SE 10.4 mph 16.1 mph N/A   Mostly Cloudy
11:35 AM 23.0 °F 11.7 °F 15.8 °F 74% 30.03 in 10.0 mi SSE 11.5 mph 18.4 mph N/A   Overcast
11:55 AM 24.8 °F 14.6 °F 15.8 °F 69% 30.01 in 10.0 mi SE 10.4 mph 18.4 mph N/A   Overcast
12:15 PM 24.8 °F 14.0 °F 15.8 °F 69% 29.99 in 10.0 mi SE 11.5 mph 18.4 mph N/A   Overcast
12:35 PM 26.6 °F 15.7 °F 17.6 °F 69% 29.97 in 10.0 mi SE 12.7 mph 17.3 mph N/A   Overcast
12:55 PM 28.4 °F 19.1 °F 17.6 °F 64% 29.95 in 10.0 mi SE 10.4 mph 18.4 mph N/A   Scattered Clouds
1:15 PM 26.6 °F 15.7 °F 19.4 °F 74% 29.94 in 10.0 mi SSE 12.7 mph 18.4 mph N/A   Scattered Clouds
1:35 PM 30.2 °F 21.3 °F 19.4 °F 64% 29.93 in 10.0 mi SE 10.4 mph 17.3 mph N/A   Scattered Clouds
1:55 PM 28.4 °F 17.5 °F 19.4 °F 69% 29.93 in 10.0 mi SSE 13.8 mph 19.6 mph N/A   Mostly Cloudy
2:15 PM 28.4 °F 18.0 °F 21.2 °F 74% 29.91 in 10.0 mi SSE 12.7 mph 18.4 mph N/A   Mostly Cloudy
2:35 PM 32.0 °F 22.5 °F 21.2 °F 64% 29.89 in 10.0 mi SSE 12.7 mph 19.6 mph N/A   Overcast
2:55 PM 30.2 °F 20.2 °F 21.2 °F 69% 29.88 in 10.0 mi SSE 12.7 mph 21.9 mph N/A   Mostly Cloudy
3:15 PM 32.0 °F 22.1 °F 23.0 °F 69% 29.86 in 10.0 mi SSE 13.8 mph 21.9 mph N/A   Mostly Cloudy
3:35 PM 32.0 °F 23.0 °F 23.0 °F 69% 29.85 in 10.0 mi SE 11.5 mph 20.7 mph N/A   Mostly Cloudy
3:55 PM 33.8 °F 24.8 °F 24.8 °F 70% 29.84 in 10.0 mi SE 12.7 mph 21.9 mph N/A   Mostly Cloudy
4:15 PM 33.8 °F 25.8 °F 24.8 °F 70% 29.82 in 10.0 mi SE 10.4 mph 18.4 mph N/A   Overcast
4:35 PM 33.8 °F 25.3 °F 24.8 °F 70% 29.82 in 10.0 mi SE 11.5 mph 18.4 mph N/A   Overcast
4:55 PM 33.8 °F 25.3 °F 26.6 °F 75% 29.81 in 10.0 mi SE 11.5 mph 19.6 mph N/A   Overcast
5:15 PM 33.8 °F 25.3 °F 26.6 °F 75% 29.79 in 10.0 mi SE 11.5 mph 17.3 mph N/A   Overcast
5:35 PM 33.8 °F 24.3 °F 26.6 °F 75% 29.78 in 10.0 mi SE 13.8 mph 19.6 mph N/A   Overcast
5:55 PM 33.8 °F 25.3 °F 26.6 °F 75% 29.77 in 10.0 mi SE 11.5 mph 21.9 mph N/A   Overcast
6:15 PM 35.6 °F 27.1 °F 28.4 °F 75% 29.77 in 10.0 mi SE 12.7 mph 18.4 mph N/A   Mostly Cloudy
6:35 PM 35.6 °F 27.5 °F 26.6 °F 70% 29.78 in 10.0 mi SSE 11.5 mph 17.3 mph N/A   Mostly Cloudy
6:55 PM 33.8 °F 24.8 °F 28.4 °F 81% 29.78 in 10.0 mi SE 12.7 mph - N/A   Overcast
7:15 PM 33.8 °F 27.0 °F 28.4 °F 81% 29.79 in 10.0 mi SE 8.1 mph 16.1 mph N/A   Overcast
7:35 PM 33.8 °F 27.7 °F 28.4 °F 81% 29.79 in 10.0 mi SE 6.9 mph - N/A   Overcast
7:55 PM 33.8 °F 27.0 °F 28.4 °F 81% 29.78 in 10.0 mi SE 8.1 mph - N/A   Overcast
8:15 PM 33.8 °F 26.4 °F 28.4 °F 81% 29.78 in 10.0 mi SE 9.2 mph - N/A   Overcast
8:35 PM 33.8 °F 25.8 °F 26.6 °F 75% 29.77 in 10.0 mi SE 10.4 mph 16.1 mph N/A   Overcast
8:55 PM 33.8 °F 25.8 °F 26.6 °F 75% 29.76 in 10.0 mi SE 10.4 mph 21.9 mph N/A   Overcast
9:15 PM 33.8 °F 26.4 °F 26.6 °F 75% 29.77 in 10.0 mi SE 9.2 mph - N/A   Overcast
9:35 PM 33.8 °F 26.4 °F 26.6 °F 75% 29.76 in 10.0 mi SE 9.2 mph - N/A   Overcast
9:55 PM 33.8 °F 25.3 °F 26.6 °F 75% 29.75 in 10.0 mi SE 11.5 mph 19.6 mph N/A   Overcast
10:15 PM 33.8 °F 23.5 °F 28.4 °F 81% 29.75 in 10.0 mi SSE 16.1 mph 20.7 mph N/A   Mostly Cloudy
10:35 PM 33.8 °F 24.3 °F 28.4 °F 81% 29.74 in 10.0 mi SSE 13.8 mph 21.9 mph N/A   Mostly Cloudy
10:55 PM 33.8 °F 23.5 °F 28.4 °F 81% 29.72 in 10.0 mi SSE 16.1 mph 21.9 mph N/A   Overcast
11:15 PM 33.8 °F 22.5 °F 28.4 °F 81% 29.71 in 1.5 mi SSE 19.6 mph 24.2 mph N/A Snow Light Snow
11:35 PM 32.0 °F 21.6 °F 28.4 °F 87% 29.69 in 1.0 mi SE 15.0 mph 24.2 mph N/A Snow Snow
11:55 PM 32.0 °F 20.1 °F 28.4 °F 87% 29.68 in 3.0 mi SSE 19.6 mph 26.5 mph N/A Snow Light Snow